Time;durP1;ratioP1;P1;durP2;ratioP2;P2;SDS_P1;SDS_P2;PMS_P1;PMS_P2;Temp;Humidity;BMP_temperature;BMP_pressure;BME280_temperature;BME280_humidity;BME280_pressure;Samples;Min_cycle;Max_cycle;Signal;HPM_P1;HPM_P2
2022/11/30 05:25:52;;;;;;;11.83;6.33;;;;;;;-0.48;76.39;100732.34;1719560;82;20963;-40
2022/11/30 05:28:19;;;;;;;9.13;5.87;;;;;;;-0.50;76.33;100742.46;1731942;82;21566;-40
2022/11/30 05:30:46;;;;;;;9.90;6.08;;;;;;;-0.49;76.38;100743.55;1731829;82;20955;-40
2022/11/30 05:33:13;;;;;;;10.85;6.08;;;;;;;-0.47;76.81;100749.41;1731835;82;21587;-40
2022/11/30 05:35:40;;;;;;;12.13;6.40;;;;;;;-0.34;76.64;100754.06;1731719;82;21529;-40
2022/11/30 05:38:07;;;;;;;13.13;5.85;;;;;;;-0.28;76.27;100750.36;1731920;82;21191;-40
2022/11/30 05:40:34;;;;;;;11.93;6.03;;;;;;;-0.23;76.07;100759.73;1731662;82;20979;-40
2022/11/30 05:43:01;;;;;;;13.88;6.72;;;;;;;-0.22;75.78;100760.02;1731834;82;21078;-40
2022/11/30 05:45:28;;;;;;;9.15;5.83;;;;;;;-0.20;75.65;100755.25;1731971;82;21022;-40
2022/11/30 05:47:55;;;;;;;9.90;6.30;;;;;;;-0.17;75.69;100758.73;1731888;82;21035;-40
2022/11/30 05:50:22;;;;;;;11.35;7.28;;;;;;;-0.11;75.67;100759.86;1725793;82;21226;-40
2022/11/30 05:52:56;;;;;;;16.40;9.43;;;;;;;-0.08;75.37;100762.00;1731853;82;21815;-40
2022/11/30 05:55:24;;;;;;;12.68;8.98;;;;;;;-0.09;75.11;100758.25;1731844;82;20943;-40
2022/11/30 05:57:50;;;;;;;19.27;10.05;;;;;;;-0.09;74.97;100768.91;1731941;82;21115;-40
2022/11/30 06:00:19;;;;;;;21.07;12.07;;;;;;;-0.04;74.98;100778.28;1731952;82;21055;-40
2022/11/30 06:02:46;;;;;;;30.88;17.87;;;;;;;-0.06;74.97;100775.89;1731977;82;21619;-40
2022/11/30 06:05:13;;;;;;;36.88;20.35;;;;;;;-0.03;74.83;100774.56;1731728;82;21509;-40
2022/11/30 06:07:41;;;;;;;18.60;10.55;;;;;;;0.00;74.86;100775.41;1731965;82;21547;-40
2022/11/30 06:10:09;;;;;;;16.97;9.50;;;;;;;0.06;74.83;100779.70;1731851;82;21508;-40
2022/11/30 06:12:36;;;;;;;20.85;9.28;;;;;;;0.12;74.44;100777.88;1716134;82;21006;-40
2022/11/30 06:15:05;;;;;;;15.78;8.98;;;;;;;0.16;74.31;100775.77;1709162;84;21264;-40
2022/11/30 06:17:31;;;;;;;14.10;8.53;;;;;;;0.21;74.39;100784.34;1709359;83;21033;-40
2022/11/30 06:19:58;;;;;;;16.07;8.55;;;;;;;0.27;74.04;100780.13;1709160;84;21629;-40
2022/11/30 06:22:25;;;;;;;14.43;9.60;;;;;;;0.31;74.17;100778.55;1708935;83;20961;-40
2022/11/30 06:24:52;;;;;;;16.05;9.03;;;;;;;0.39;73.81;100775.39;1709070;83;21555;-40
2022/11/30 06:27:19;;;;;;;12.47;8.53;;;;;;;0.38;73.56;100777.81;1709055;84;21268;-40
2022/11/30 11:09:28;;;;;;;12.75;8.43;;;;;;;1.30;71.00;100761.12;1785247;80;22097;-38
2022/11/30 11:11:58;;;;;;;11.20;7.78;;;;;;;1.47;69.99;100756.05;1764980;80;20925;-38
2022/11/30 11:14:27;;;;;;;14.80;8.98;;;;;;;1.50;69.28;100760.89;1759381;81;21092;-38
2022/11/30 11:17:04;;;;;;;14.90;9.80;;;;;;;1.49;68.72;100760.61;1759245;81;21578;-38
2022/11/30 11:19:38;;;;;;;18.77;9.45;;;;;;;1.47;67.83;100764.88;1753118;81;20952;-38
2022/11/30 11:22:20;;;;;;;15.45;9.33;;;;;;;1.34;67.66;100764.59;1758835;81;21522;-38
2022/11/30 11:24:48;;;;;;;14.28;9.25;;;;;;;1.29;67.87;100766.19;1759288;81;21011;-38
2022/11/30 11:27:30;;;;;;;16.12;9.75;;;;;;;1.26;67.83;100757.88;1759065;81;21865;-38
2022/11/30 11:30:08;;;;;;;13.80;9.50;;;;;;;1.24;67.88;100766.17;1759007;81;21602;-38
2022/11/30 11:32:34;;;;;;;15.55;9.20;;;;;;;1.24;67.70;100766.70;1758860;81;21029;-38
2022/11/30 11:35:01;;;;;;;17.50;9.30;;;;;;;1.19;67.66;100768.83;1758898;81;21003;-38
2022/11/30 11:37:32;;;;;;;17.73;9.98;;;;;;;1.19;67.24;100766.16;1758952;81;21075;-38
2022/11/30 11:40:09;;;;;;;16.20;9.43;;;;;;;1.10;66.97;100771.74;1759068;81;21486;-38
2022/11/30 11:42:51;;;;;;;15.38;9.08;;;;;;;0.90;66.72;100764.98;1758913;81;21012;-38
2022/11/30 11:45:27;;;;;;;17.15;9.90;;;;;;;0.71;67.39;100765.98;1758602;81;20945;-38
2022/11/30 11:48:08;;;;;;;16.15;9.73;;;;;;;0.68;67.81;100761.67;1743758;81;20980;-38
2022/11/30 11:50:36;;;;;;;13.70;9.08;;;;;;;0.66;67.91;100766.48;1759222;81;20988;-38
2022/11/30 11:53:24;;;;;;;15.45;9.20;;;;;;;0.66;68.11;100767.81;1758919;81;21211;-38
2022/11/30 11:56:01;;;;;;;14.00;9.28;;;;;;;0.65;67.94;100775.54;1758972;81;20953;-38
2022/11/30 11:58:37;;;;;;;15.45;9.08;;;;;;;0.61;67.97;100773.13;1759056;81;21530;-38
2022/11/30 12:01:09;;;;;;;16.02;9.43;;;;;;;0.63;68.11;100771.02;1758167;81;20977;-38
2022/11/30 12:03:56;;;;;;;18.77;9.53;;;;;;;0.68;68.09;100776.34;1758966;81;20960;-38
2022/11/30 12:06:23;;;;;;;14.58;8.90;;;;;;;0.66;68.09;100774.48;1759034;81;21304;-38
2022/11/30 12:08:55;;;;;;;14.07;8.70;;;;;;;0.67;68.37;100776.09;1753882;81;21053;-38
2022/11/30 12:11:36;;;;;;;14.23;8.80;;;;;;;0.72;67.95;100778.80;1731025;82;21525;-38
2022/11/30 12:14:08;;;;;;;13.80;8.75;;;;;;;0.70;68.03;100782.23;1761066;81;21493;-38
2022/11/30 12:16:37;;;;;;;14.50;8.98;;;;;;;0.72;67.73;100781.46;1760904;81;21000;-38
2022/11/30 12:19:26;;;;;;;14.40;8.95;;;;;;;0.68;67.56;100789.69;1761149;81;21323;-38
2022/11/30 12:22:19;;;;;;;14.33;8.93;;;;;;;0.66;67.68;100782.49;1759825;81;21058;-38
2022/11/30 12:25:12;;;;;;;13.93;8.83;;;;;;;0.63;67.29;100783.02;1761427;81;21529;-38
2022/11/30 12:28:00;;;;;;;15.70;8.78;;;;;;;0.56;67.61;100779.23;1761356;81;21039;-38
2022/11/30 12:30:48;;;;;;;13.28;8.50;;;;;;;0.56;67.51;100787.77;1761380;81;21095;-38
2022/11/30 12:33:42;;;;;;;14.73;8.45;;;;;;;0.51;67.61;100780.55;1712316;81;21121;-38
2022/11/30 12:36:55;;;;;;;13.15;8.18;;;;;;;0.52;67.70;100780.02;1761307;81;21019;-38
2022/11/30 12:39:46;;;;;;;14.80;8.55;;;;;;;0.46;67.62;100789.04;1761213;81;21012;-38
2022/11/30 12:42:24;;;;;;;13.20;8.75;;;;;;;0.44;67.82;100789.29;1754234;81;21099;-38
2022/11/30 12:45:05;;;;;;;12.43;8.40;;;;;;;0.46;67.76;100789.84;1761240;81;21028;-38
2022/11/30 12:47:44;;;;;;;15.95;8.35;;;;;;;0.52;68.01;100789.35;1761155;81;21105;-38
2022/11/30 12:50:28;;;;;;;13.30;8.50;;;;;;;0.55;67.75;100782.16;1729201;81;20968;-38
2022/11/30 12:53:19;;;;;;;13.62;8.65;;;;;;;0.56;67.52;100785.10;1760512;81;21018;-38
2022/11/30 12:56:09;;;;;;;13.30;8.10;;;;;;;0.56;67.54;100784.58;1761217;81;21486;-38
2022/11/30 12:58:47;;;;;;;16.23;9.50;;;;;;;0.56;67.38;100790.44;1760939;81;21052;-38
2022/11/30 13:01:35;;;;;;;16.95;8.68;;;;;;;0.55;67.13;100782.96;1750818;81;21295;-38
2022/11/30 13:04:24;;;;;;;19.37;9.33;;;;;;;0.50;66.85;100786.13;1760847;81;21591;-38
2022/11/30 13:07:07;;;;;;;14.43;8.60;;;;;;;0.43;66.97;100787.17;1761535;81;20972;-38
2022/11/30 13:09:40;;;;;;;18.77;8.88;;;;;;;0.34;66.89;100782.02;1758732;81;21056;-38
2022/11/30 13:12:14;;;;;;;15.78;8.93;;;;;;;0.24;66.84;100788.63;1756406;81;21107;-38
2022/11/30 13:14:41;;;;;;;14.10;8.63;;;;;;;0.12;66.90;100788.02;1758074;81;21883;-38
2022/11/30 13:17:16;;;;;;;18.90;9.35;;;;;;;0.05;67.49;100790.08;1757962;81;21428;-38
2022/11/30 13:20:03;;;;;;;13.28;8.23;;;;;;;0.06;67.68;100786.89;1727394;83;21039;-38
2022/11/30 13:22:49;;;;;;;14.65;8.50;;;;;;;0.13;67.90;100792.30;1758084;81;20921;-38
2022/11/30 13:25:33;;;;;;;13.53;8.28;;;;;;;0.14;67.83;100792.58;1758270;81;21052;-38
2022/11/30 13:28:27;;;;;;;13.43;8.50;;;;;;;0.16;67.67;100786.44;1758196;81;21224;-38
2022/11/30 13:31:19;;;;;;;14.87;8.53;;;;;;;0.15;67.58;100788.83;1757966;81;20905;-38
2022/11/30 13:33:56;;;;;;;15.32;8.03;;;;;;;0.14;67.78;100785.10;1749505;81;20981;-38
2022/11/30 13:36:43;;;;;;;13.80;8.20;;;;;;;0.14;67.77;100777.91;1756358;81;21015;-38
2022/11/30 13:39:26;;;;;;;14.47;8.20;;;;;;;0.12;67.49;100780.02;1758320;81;21035;-38
2022/11/30 13:42:09;;;;;;;16.10;8.73;;;;;;;0.07;67.70;100779.17;1758108;81;22098;-38
2022/11/30 13:44:39;;;;;;;12.90;8.00;;;;;;;0.02;67.92;100781.27;1757994;81;21020;-38
2022/11/30 13:47:33;;;;;;;15.05;8.35;;;;;;;0.04;68.08;100779.17;1758202;81;28283;-38
2022/11/30 13:50:10;;;;;;;15.63;8.53;;;;;;;0.03;68.18;100781.55;1741134;81;20941;-38
2022/11/30 13:53:00;;;;;;;13.98;8.70;;;;;;;0.05;68.06;100786.64;1757439;81;21099;-38
2022/11/30 13:55:50;;;;;;;13.60;7.87;;;;;;;0.03;68.12;100778.88;1713282;83;23331;-38
2022/11/30 13:58:18;;;;;;;15.53;8.13;;;;;;;0.00;67.92;100776.73;1713424;83;21093;-38
2022/11/30 14:01:23;;;;;;;14.07;7.67;;;;;;;-0.03;68.10;100774.56;1712227;81;21036;-38
2022/11/30 19:25:25;;;;;;;20.65;10.80;;;;;;;-1.20;74.33;100815.66;1756285;80;22606;-38
2022/11/30 19:27:52;;;;;;;18.07;10.80;;;;;;;-1.01;73.19;100819.64;1747995;81;20968;-38
2022/11/30 19:30:19;;;;;;;22.90;11.55;;;;;;;-1.00;72.82;100822.58;1764831;81;21236;-38
2022/11/30 19:32:46;;;;;;;21.33;10.93;;;;;;;-0.96;72.65;100826.36;1764536;81;21488;-38
2022/11/30 19:35:13;;;;;;;22.30;11.53;;;;;;;-0.93;72.31;100821.89;1764622;81;21833;-38
2022/11/30 19:37:41;;;;;;;19.82;10.90;;;;;;;-0.85;71.93;100825.95;1764674;81;21027;-38
2022/11/30 19:40:11;;;;;;;23.10;11.48;;;;;;;-0.86;71.26;100825.16;1764493;81;21044;-38
2022/11/30 19:42:38;;;;;;;21.68;12.40;;;;;;;-0.83;71.17;100824.67;1765125;81;21193;-38
2022/11/30 19:45:07;;;;;;;22.02;11.73;;;;;;;-0.80;71.05;100825.50;1764760;81;20987;-38
2022/11/30 19:47:36;;;;;;;22.43;11.93;;;;;;;-0.75;70.71;100833.55;1765414;81;20968;-38
2022/11/30 19:50:04;;;;;;;21.07;11.43;;;;;;;-0.75;70.44;100830.88;1764769;81;21031;-38
2022/11/30 19:52:31;;;;;;;21.95;11.70;;;;;;;-0.73;70.21;100830.13;1765463;81;20984;-38
2022/11/30 19:54:58;;;;;;;21.48;13.03;;;;;;;-0.73;70.17;100830.13;1764640;81;23140;-38
2022/11/30 19:57:25;;;;;;;19.30;11.90;;;;;;;-0.70;69.97;100835.46;1764743;81;21470;-38
2022/11/30 19:59:52;;;;;;;27.73;12.68;;;;;;;-0.68;69.84;100834.70;1764755;81;21008;-39
2022/11/30 20:02:19;;;;;;;22.52;12.37;;;;;;;-0.65;69.70;100836.33;1764646;81;20948;-38
2022/11/30 20:04:46;;;;;;;17.27;11.20;;;;;;;-0.64;69.41;100836.61;1764692;81;21301;-38
2022/11/30 20:07:13;;;;;;;23.00;13.05;;;;;;;-0.66;69.28;100841.89;1764427;81;23207;-38
2022/11/30 20:09:40;;;;;;;23.95;12.88;;;;;;;-0.71;69.37;100839.98;1764666;81;21072;-39
2022/11/30 20:12:07;;;;;;;21.77;13.20;;;;;;;-0.71;69.26;100846.63;1764402;81;21478;-38
2022/11/30 20:14:35;;;;;;;23.10;12.98;;;;;;;-0.74;69.41;100835.69;1764497;81;21064;-39
2022/11/30 20:17:02;;;;;;;22.52;12.68;;;;;;;-0.72;69.28;100842.88;1764604;81;21028;-39
2022/11/30 20:19:30;;;;;;;23.73;12.63;;;;;;;-0.76;69.42;100835.92;1764569;81;21138;-39
2022/11/30 20:21:58;;;;;;;25.77;13.48;;;;;;;-0.73;69.30;100839.44;1764507;81;20936;-38
2022/11/30 20:24:25;;;;;;;25.57;12.75;;;;;;;-0.72;69.27;100840.22;1764485;81;20929;-39
2022/11/30 20:26:51;;;;;;;26.87;12.60;;;;;;;-0.72;69.09;100842.36;1764153;81;20984;-38
2022/11/30 20:29:18;;;;;;;23.80;13.28;;;;;;;-0.71;69.27;100838.65;1763968;81;21071;-38
2022/11/30 20:31:46;;;;;;;25.02;12.78;;;;;;;-0.69;69.09;100841.88;1763983;81;23122;-38
2022/11/30 20:34:13;;;;;;;20.88;12.45;;;;;;;-0.67;69.17;100839.75;1764280;81;21083;-38
2022/11/30 20:36:39;;;;;;;24.55;11.78;;;;;;;-0.65;68.93;100849.64;1764050;81;21470;-38
2022/11/30 20:39:06;;;;;;;21.55;13.03;;;;;;;-0.67;69.00;100843.75;1763950;81;21592;-38
2022/11/30 20:41:33;;;;;;;21.15;12.10;;;;;;;-0.67;68.80;100848.27;1764215;81;21032;-38
2022/11/30 20:43:59;;;;;;;21.68;13.18;;;;;;;-0.66;68.99;100845.36;1763900;81;21320;-38
2022/11/30 20:46:34;;;;;;;24.18;12.60;;;;;;;-0.61;68.80;100844.09;1763993;81;21573;-38
2022/11/30 20:49:03;;;;;;;22.37;12.65;;;;;;;-0.61;68.66;100841.43;1763915;81;21554;-38
2022/11/30 20:51:33;;;;;;;24.23;12.88;;;;;;;-0.61;68.47;100840.09;1764474;81;21067;-38
2022/11/30 20:54:02;;;;;;;25.80;13.15;;;;;;;-0.67;68.30;100838.42;1764349;81;21083;-39
2022/11/30 20:56:29;;;;;;;22.33;13.23;;;;;;;-0.67;68.45;100838.42;1764796;81;21773;-39
2022/11/30 20:58:57;;;;;;;21.05;11.97;;;;;;;-0.65;68.50;100837.66;1764216;81;20979;-38
2022/11/30 21:01:25;;;;;;;24.47;12.93;;;;;;;-0.64;68.48;100845.94;1732456;81;21027;-38
2022/11/30 21:03:52;;;;;;;25.70;13.50;;;;;;;-0.61;68.62;100840.09;1764160;81;21463;-38
2022/11/30 21:06:19;;;;;;;26.05;13.40;;;;;;;-0.58;68.46;100839.59;1764618;81;21024;-38
2022/11/30 21:08:46;;;;;;;24.67;12.70;;;;;;;-0.59;68.43;100842.52;1764164;81;21635;-38
2022/11/30 21:11:15;;;;;;;21.85;12.73;;;;;;;-0.56;68.25;100842.81;1764293;81;21552;-38
2022/11/30 21:13:43;;;;;;;21.75;12.90;;;;;;;-0.59;68.31;100845.99;1764336;81;21049;-38
2022/11/30 21:16:11;;;;;;;24.02;13.25;;;;;;;-0.55;68.45;100841.77;1764155;81;22046;-39
2022/11/30 21:18:41;;;;;;;25.10;13.38;;;;;;;-0.53;68.33;100842.31;1764434;81;21012;-39
2022/11/30 21:21:18;;;;;;;20.35;12.70;;;;;;;-0.52;68.08;100841.27;1764198;81;21198;-38
2022/11/30 21:23:46;;;;;;;29.95;13.58;;;;;;;-0.55;68.16;100836.44;1763716;81;20988;-39
2022/11/30 21:26:18;;;;;;;22.75;12.98;;;;;;;-0.53;68.09;100842.83;1751985;81;20984;-39
2022/11/30 21:28:46;;;;;;;26.48;12.75;;;;;;;-0.56;68.08;100844.16;1751524;81;20997;-38
2022/11/30 21:31:13;;;;;;;25.35;13.20;;;;;;;-0.54;68.01;100840.72;1751869;81;21076;-38
2022/11/30 21:33:40;;;;;;;27.48;13.55;;;;;;;-0.55;68.12;100847.09;1752098;81;21272;-38
2022/11/30 21:36:08;;;;;;;21.68;12.88;;;;;;;-0.57;67.95;100839.88;1751796;81;21537;-39
2022/11/30 21:38:37;;;;;;;25.27;12.75;;;;;;;-0.60;68.21;100844.38;1751869;81;21004;-39
2022/11/30 21:41:04;;;;;;;22.35;13.25;;;;;;;-0.54;68.23;100849.23;1751725;81;21530;-39
2022/11/30 21:43:34;;;;;;;26.37;13.65;;;;;;;-0.55;68.16;100840.96;1751942;81;20973;-38
2022/11/30 21:46:07;;;;;;;23.27;13.13;;;;;;;-0.52;68.17;100839.92;1751897;81;21254;-38
2022/11/30 21:48:35;;;;;;;23.52;12.98;;;;;;;-0.51;68.26;100840.21;1751776;81;20944;-38
2022/11/30 21:51:12;;;;;;;17.90;10.32;;;;;;;-0.52;68.14;100838.59;1751992;81;21060;-39
2022/11/30 21:53:46;;;;;;;21.40;12.98;;;;;;;-0.53;68.10;100835.65;1751786;81;21057;-38
2022/11/30 21:56:15;;;;;;;24.18;13.48;;;;;;;-0.52;67.86;100837.27;1751780;81;21091;-38
2022/11/30 21:58:44;;;;;;;26.33;13.83;;;;;;;-0.59;68.00;100838.00;1752309;81;21187;-39
2022/11/30 22:01:15;;;;;;;19.15;10.75;;;;;;;-0.58;68.05;100832.92;1751913;81;20994;-39
2022/11/30 22:03:42;;;;;;;24.05;13.30;;;;;;;-0.63;68.15;100831.54;1752139;81;20980;-39
2022/11/30 22:06:11;;;;;;;22.52;13.55;;;;;;;-0.64;68.20;100832.62;1751820;81;21008;-38
2022/11/30 22:08:38;;;;;;;17.35;9.70;;;;;;;-0.66;68.25;100836.56;1752349;81;21044;-39
2022/11/30 22:11:18;;;;;;;28.65;14.03;;;;;;;-0.67;68.19;100839.75;1751690;81;21181;-39
2022/11/30 22:13:50;;;;;;;24.45;14.13;;;;;;;-0.70;68.41;100841.59;1751799;81;20969;-39
2022/11/30 22:16:17;;;;;;;28.07;13.78;;;;;;;-0.68;68.46;100830.18;1751883;81;21016;-39
2022/11/30 22:18:44;;;;;;;23.18;13.70;;;;;;;-0.68;68.45;100838.17;1751796;81;20976;-38
2022/11/30 22:21:15;;;;;;;23.83;12.95;;;;;;;-0.64;68.36;100843.80;1751829;81;21061;-38
2022/11/30 22:23:44;;;;;;;27.45;14.65;;;;;;;-0.65;68.44;100839.52;1752068;81;21032;-39
2022/11/30 22:26:15;;;;;;;26.12;13.55;;;;;;;-0.62;68.44;100838.48;1762972;81;21542;-39
2022/11/30 22:28:45;;;;;;;24.85;14.30;;;;;;;-0.65;68.19;100840.84;1764018;81;21003;-39
2022/11/30 22:31:13;;;;;;;27.90;13.83;;;;;;;-0.65;68.30;100838.99;1764310;81;21009;-38
2022/11/30 22:33:41;;;;;;;24.92;13.08;;;;;;;-0.64;68.33;100837.94;1764266;81;21473;-39
2022/11/30 22:36:15;;;;;;;23.52;13.58;;;;;;;-0.63;68.30;100836.09;1764277;81;22017;-38
2022/11/30 22:38:42;;;;;;;22.20;13.32;;;;;;;-0.62;68.26;100830.49;1764398;81;20960;-38
2022/11/30 22:41:13;;;;;;;24.90;13.62;;;;;;;-0.60;68.36;100829.73;1763945;81;21040;-38
2022/11/30 22:43:41;;;;;;;27.58;14.35;;;;;;;-0.55;68.23;100833.78;1763545;81;21600;-38
2022/11/30 22:46:11;;;;;;;26.07;14.28;;;;;;;-0.56;68.08;100830.83;1764033;81;21091;-38
2022/11/30 22:48:39;;;;;;;25.40;13.43;;;;;;;-0.55;68.05;100830.31;1764274;81;21081;-39
2022/11/30 22:51:11;;;;;;;24.00;13.93;;;;;;;-0.54;68.02;100830.59;1763895;81;21027;-38
2022/11/30 22:53:38;;;;;;;27.90;14.30;;;;;;;-0.52;68.08;100827.13;1763977;81;21554;-38
2022/11/30 22:56:13;;;;;;;24.23;12.93;;;;;;;-0.53;68.02;100822.85;1763910;81;21012;-38
2022/11/30 22:58:40;;;;;;;20.55;13.08;;;;;;;-0.51;68.16;100828.22;1762821;81;21103;-38
2022/11/30 23:01:13;;;;;;;23.47;13.20;;;;;;;-0.49;67.88;100824.80;1763848;81;21255;-38
2022/11/30 23:03:40;;;;;;;25.68;13.70;;;;;;;-0.47;67.95;100826.66;1764119;81;20967;-39
2022/11/30 23:06:07;;;;;;;23.80;13.55;;;;;;;-0.46;67.89;100822.95;1763864;81;20960;-38
2022/11/30 23:08:36;;;;;;;22.62;12.90;;;;;;;-0.41;67.95;100828.86;1763824;81;21004;-38
2022/11/30 23:11:06;;;;;;;27.48;13.20;;;;;;;-0.34;67.75;100825.48;1763842;81;21028;-38
2022/11/30 23:13:33;;;;;;;24.92;13.85;;;;;;;-0.37;67.33;100830.48;1764022;81;21811;-39
2022/11/30 23:16:00;;;;;;;24.12;13.95;;;;;;;-0.39;67.34;100824.62;1763757;81;22101;-38
2022/11/30 23:18:28;;;;;;;24.57;13.50;;;;;;;-0.45;67.45;100825.90;1763920;81;21016;-39
2022/11/30 23:21:12;;;;;;;25.77;14.68;;;;;;;-0.48;67.25;100831.70;1763847;81;21007;-39
2022/11/30 23:23:40;;;;;;;28.50;13.80;;;;;;;-0.49;67.45;100826.13;1763857;81;21580;-39
2022/11/30 23:26:12;;;;;;;25.85;13.38;;;;;;;-0.49;67.47;100822.13;1751582;81;21084;-39
2022/11/30 23:28:39;;;;;;;25.82;13.05;;;;;;;-0.45;67.54;100828.56;1746633;82;20960;-38
2022/11/30 23:31:13;;;;;;;24.00;13.53;;;;;;;-0.48;66.81;100828.23;1746758;82;21013;-38
2022/11/30 23:33:39;;;;;;;23.98;13.72;;;;;;;-0.61;67.08;100832.11;1746830;82;21110;-38
2022/11/30 23:36:08;;;;;;;25.85;13.32;;;;;;;-0.65;67.11;100832.86;1746963;82;21037;-39
2022/11/30 23:38:35;;;;;;;22.67;13.08;;;;;;;-0.68;67.41;100830.70;1746907;82;21558;-38
2022/11/30 23:41:09;;;;;;;26.87;13.72;;;;;;;-0.63;67.49;100833.42;1741131;82;20941;-38
2022/11/30 23:43:37;;;;;;;25.35;13.43;;;;;;;-0.57;67.44;100830.55;1746424;82;21628;-39
2022/11/30 23:46:05;;;;;;;26.12;13.60;;;;;;;-0.55;67.19;100833.78;1746761;82;21001;-38
2022/11/30 23:48:32;;;;;;;17.97;10.20;;;;;;;-0.57;67.01;100835.06;1747136;82;21538;-39
2022/11/30 23:50:59;;;;;;;26.85;13.62;;;;;;;-0.60;66.91;100836.39;1746758;82;21591;-38
2022/11/30 23:53:26;;;;;;;25.92;13.78;;;;;;;-0.63;66.80;100836.09;1746739;82;21506;-38
2022/11/30 23:55:53;;;;;;;27.50;14.28;;;;;;;-0.76;66.64;100831.93;1746799;82;20993;-38
2022/11/30 23:58:21;;;;;;;23.35;13.68;;;;;;;-0.85;66.84;100832.61;1746724;82;20968;-38
